Time;durP1;ratioP1;P1;durP2;ratioP2;P2;SDS_P1;SDS_P2;PMS_P1;PMS_P2;Temp;Humidity;BMP_temperature;BMP_pressure;BME280_temperature;BME280_humidity;BME280_pressure;Samples;Min_cycle;Max_cycle;Signal;HPM_P1;HPM_P2
2022/09/08 00:00:15;;;;;;;7.95;3.65;;;;;;;17.29;100.00;100666.91;1969798;28;20067;-70
2022/09/08 00:01:16;;;;;;;8.65;3.83;;;;;;;17.31;100.00;100661.53;1970340;28;20417;-71
2022/09/08 00:02:14;;;;;;;8.95;3.80;;;;;;;17.30;100.00;100663.31;1969892;28;20080;-69
2022/09/08 00:03:15;;;;;;;12.50;3.92;;;;;;;17.34;100.00;100661.28;1970258;28;20042;-70
2022/09/08 00:04:13;;;;;;;14.35;3.83;;;;;;;17.34;100.00;100672.69;1968095;28;20029;-72
2022/09/08 00:05:14;;;;;;;7.65;3.38;;;;;;;17.37;99.67;100669.81;1970270;28;20445;-71
2022/09/08 00:06:17;;;;;;;9.45;3.55;;;;;;;17.40;100.00;100671.38;1970178;28;20041;-69
2022/09/08 00:07:16;;;;;;;8.60;3.30;;;;;;;17.36;100.00;100677.84;1970205;28;20092;-70
2022/09/08 00:08:13;;;;;;;9.43;3.63;;;;;;;17.33;100.00;100678.06;1969480;28;20076;-68
2022/09/08 00:09:10;;;;;;;12.10;3.88;;;;;;;17.29;100.00;100679.25;1969602;28;20494;-65
2022/09/08 00:10:08;;;;;;;8.32;3.60;;;;;;;17.24;100.00;100677.78;1969998;28;20022;-67
2022/09/08 00:11:10;;;;;;;8.50;3.40;;;;;;;17.20;100.00;100696.56;1969455;28;20029;-66
2022/09/08 00:12:09;;;;;;;8.63;3.67;;;;;;;17.11;100.00;100684.94;1969544;28;20036;-69
2022/09/08 00:13:07;;;;;;;12.43;4.28;;;;;;;17.13;100.00;100683.00;1969423;28;20018;-67
2022/09/08 00:14:08;;;;;;;12.68;4.05;;;;;;;17.06;100.00;100684.41;1969436;28;20108;-67
2022/09/08 00:15:06;;;;;;;10.20;3.78;;;;;;;16.97;100.00;100676.19;1969459;28;20397;-68
2022/09/08 00:16:07;;;;;;;9.13;3.88;;;;;;;16.81;100.00;100665.94;1970021;28;20029;-67
2022/09/08 00:17:04;;;;;;;8.95;3.95;;;;;;;16.84;100.00;100664.84;1970055;28;20026;-67
2022/09/08 00:18:01;;;;;;;13.43;4.55;;;;;;;16.83;100.00;100668.41;1969699;28;20030;-68
2022/09/08 00:18:59;;;;;;;10.38;4.15;;;;;;;16.79;100.00;100661.69;1970003;28;20486;-68
2022/09/08 00:19:57;;;;;;;14.10;4.07;;;;;;;16.77;100.00;100668.88;1969476;28;20022;-68
2022/09/08 00:20:54;;;;;;;11.32;3.92;;;;;;;16.72;100.00;100654.25;1969321;28;20025;-68
2022/09/08 00:21:52;;;;;;;11.38;4.25;;;;;;;16.66;100.00;100667.03;1969859;28;20048;-68
2022/09/08 00:22:50;;;;;;;10.95;4.10;;;;;;;16.63;100.00;100668.06;1969823;28;20022;-69
2022/09/08 00:23:47;;;;;;;8.75;4.40;;;;;;;16.54;100.00;100663.44;1969978;28;20037;-69
2022/09/08 00:24:45;;;;;;;10.25;4.22;;;;;;;16.46;100.00;100659.56;1969383;28;20065;-69
2022/09/08 00:25:42;;;;;;;13.35;3.90;;;;;;;16.40;100.00;100656.53;1969269;28;20109;-69
2022/09/08 00:26:40;;;;;;;9.85;3.90;;;;;;;16.35;100.00;100665.59;1969362;28;20077;-69
2022/09/08 00:27:37;;;;;;;12.00;4.07;;;;;;;16.35;100.00;100654.19;1976202;28;20033;-69
2022/09/08 00:28:35;;;;;;;13.35;3.90;;;;;;;16.30;100.00;100661.59;1970859;28;20065;-69
2022/09/08 00:29:33;;;;;;;9.57;4.10;;;;;;;16.15;100.00;100652.97;1970097;28;20105;-69
2022/09/08 00:30:31;;;;;;;9.63;4.30;;;;;;;16.05;100.00;100652.78;1970167;28;20026;-69
2022/09/08 00:31:28;;;;;;;12.50;4.32;;;;;;;15.96;100.00;100651.59;1969962;28;20049;-70
2022/09/08 00:32:26;;;;;;;11.77;4.40;;;;;;;15.89;100.00;100648.53;1970145;28;20152;-69
2022/09/08 00:33:23;;;;;;;11.13;4.63;;;;;;;15.86;100.00;100645.25;1969442;28;20037;-69
2022/09/08 00:34:21;;;;;;;13.98;5.25;;;;;;;15.88;100.00;100657.34;1967351;28;20033;-70
2022/09/08 00:35:18;;;;;;;12.20;4.65;;;;;;;15.95;100.00;100658.66;1970082;28;20225;-71
2022/09/08 00:36:18;;;;;;;12.07;5.03;;;;;;;15.91;100.00;100653.69;1970057;28;20029;-70
2022/09/08 00:37:16;;;;;;;11.40;4.30;;;;;;;15.91;100.00;100649.25;1970165;28;20288;-71
2022/09/08 00:38:13;;;;;;;10.13;4.60;;;;;;;15.84;100.00;100645.34;1970023;28;20079;-69
2022/09/08 00:39:10;;;;;;;14.82;4.85;;;;;;;15.88;100.00;100638.94;1970123;28;20105;-70
2022/09/08 00:40:09;;;;;;;17.35;5.53;;;;;;;15.84;100.00;100629.56;1969907;28;20037;-71
2022/09/08 00:41:10;;;;;;;11.35;4.72;;;;;;;15.86;100.00;100632.94;1970100;28;20065;-73
2022/09/08 00:42:08;;;;;;;11.95;4.55;;;;;;;15.87;100.00;100628.53;1970030;28;20026;-73
2022/09/08 00:43:05;;;;;;;12.98;5.38;;;;;;;15.89;100.00;100627.47;1970005;28;20064;-73
2022/09/08 00:44:50;;;;;;;17.42;5.60;;;;;;;15.90;100.00;100629.16;1970084;28;20035;-74
2022/09/08 00:45:48;;;;;;;16.00;5.10;;;;;;;15.82;100.00;100631.47;1970072;28;20029;-74
2022/09/08 00:46:45;;;;;;;16.90;5.38;;;;;;;15.80;100.00;100633.34;1969905;28;20510;-75
2022/09/08 00:47:58;;;;;;;15.02;5.00;;;;;;;15.77;100.00;100629.13;1969491;28;20038;-75
2022/09/08 00:49:16;;;;;;;14.18;4.53;;;;;;;15.77;100.00;100630.94;1969461;28;20036;-74
2022/09/08 00:50:22;;;;;;;12.02;4.72;;;;;;;15.70;100.00;100623.47;1970023;28;20033;-75
2022/09/08 00:51:23;;;;;;;12.35;4.88;;;;;;;15.63;100.00;100622.19;1969964;28;20489;-74
2022/09/08 00:52:21;;;;;;;14.65;5.43;;;;;;;15.58;100.00;100625.13;1969962;28;20042;-74
2022/09/08 00:53:20;;;;;;;13.25;5.35;;;;;;;15.52;100.00;100619.44;1969891;28;20133;-74
2022/09/08 00:54:19;;;;;;;15.70;5.43;;;;;;;15.55;100.00;100621.88;1970066;28;20029;-74
2022/09/08 00:55:18;;;;;;;13.75;5.72;;;;;;;15.54;100.00;100610.50;1969355;28;20089;-74
2022/09/08 00:56:17;;;;;;;11.90;5.95;;;;;;;15.55;100.00;100604.31;1969455;28;20030;-74
2022/09/08 00:57:16;;;;;;;22.48;5.50;;;;;;;15.60;100.00;100605.78;1969994;28;20029;-74
2022/09/08 00:58:13;;;;;;;14.88;5.80;;;;;;;15.62;100.00;100598.63;1969938;28;20025;-73
2022/09/08 00:59:17;;;;;;;18.98;5.82;;;;;;;15.63;100.00;100600.31;1969997;28;20036;-73
2022/09/08 01:00:17;;;;;;;13.60;5.97;;;;;;;15.62;100.00;100599.47;1970021;28;20030;-73
2022/09/08 01:01:14;;;;;;;18.25;6.30;;;;;;;15.65;100.00;100598.41;1969974;28;20115;-72
2022/09/08 01:02:25;;;;;;;17.02;5.85;;;;;;;15.64;100.00;100602.00;1969845;28;20413;-73
2022/09/08 01:03:22;;;;;;;21.35;6.30;;;;;;;15.64;100.00;100600.19;1969998;28;20117;-73
2022/09/08 01:04:22;;;;;;;18.98;6.15;;;;;;;15.65;100.00;100598.41;1967884;28;20030;-73
2022/09/08 01:05:27;;;;;;;15.30;6.20;;;;;;;15.61;100.00;100602.19;1969881;28;20414;-73
2022/09/08 01:13:06;;;;;;;14.18;6.15;;;;;;;15.63;100.00;100595.88;1952491;28;20093;-72
2022/09/08 01:14:04;;;;;;;15.82;6.45;;;;;;;15.68;100.00;100593.78;1969973;28;20493;-72
2022/09/08 01:15:01;;;;;;;14.18;6.68;;;;;;;15.67;100.00;100589.47;1969090;28;20105;-72
2022/09/08 01:15:59;;;;;;;16.02;6.03;;;;;;;15.70;100.00;100591.91;1969239;28;20109;-73
2022/09/08 01:16:56;;;;;;;15.45;6.55;;;;;;;15.74;100.00;100591.69;1969826;28;20080;-73
2022/09/08 01:17:55;;;;;;;17.90;6.72;;;;;;;15.78;100.00;100591.34;1969855;28;20501;-71
2022/09/08 01:18:56;;;;;;;18.35;7.43;;;;;;;15.80;100.00;100586.84;1969290;28;20022;-71
2022/09/08 01:19:55;;;;;;;;;;;;;;;15.79;100.00;100585.16;1969809;28;20025;-71
2022/09/08 01:21:23;;;;;;;17.88;6.57;;;;;;;15.75;100.00;100577.59;1969774;28;19917;-71
2022/09/08 01:22:45;;;;;;;15.55;7.25;;;;;;;15.63;100.00;100584.53;1969791;28;20030;-71
2022/09/08 01:24:07;;;;;;;15.90;6.63;;;;;;;15.66;100.00;100573.78;1969263;28;20037;-72
2022/09/08 01:25:26;;;;;;;17.38;6.80;;;;;;;15.62;100.00;100573.16;1969475;28;20032;-71
2022/09/08 01:26:56;;;;;;;17.48;7.40;;;;;;;15.63;100.00;100572.22;1969163;28;20033;-71
2022/09/08 01:28:27;;;;;;;19.85;6.85;;;;;;;15.65;100.00;100572.97;1972414;28;20027;-72
2022/09/08 01:29:24;;;;;;;14.50;6.75;;;;;;;15.60;100.00;100577.69;1970707;28;20100;-73
2022/09/08 01:30:21;;;;;;;18.88;6.97;;;;;;;15.65;100.00;100577.38;1970374;28;20105;-73
2022/09/08 01:31:20;;;;;;;18.23;6.53;;;;;;;15.64;100.00;100581.78;1971208;28;20030;-72
2022/09/08 01:32:19;;;;;;;17.85;6.55;;;;;;;15.68;100.00;100583.25;1970488;28;20113;-72
2022/09/08 01:33:19;;;;;;;18.58;6.40;;;;;;;15.66;100.00;100592.19;1970621;28;20484;-71
2022/09/08 01:34:16;;;;;;;22.38;7.32;;;;;;;15.63;100.00;100585.38;1968778;28;20033;-71
2022/09/08 01:35:33;;;;;;;22.27;6.38;;;;;;;15.61;100.00;100587.28;1971145;28;20118;-71
2022/09/08 01:36:31;;;;;;;21.67;6.53;;;;;;;15.58;100.00;100583.03;1970311;28;20041;-72
2022/09/08 01:37:28;;;;;;;18.00;6.72;;;;;;;15.54;100.00;100583.38;1970606;28;20030;-75
2022/09/08 01:38:25;;;;;;;15.50;6.25;;;;;;;15.55;100.00;100585.06;1971004;28;20049;-75
2022/09/08 01:39:23;;;;;;;17.88;6.43;;;;;;;15.56;100.00;100579.69;1970498;28;20481;-74
2022/09/08 01:40:20;;;;;;;18.50;6.40;;;;;;;15.55;100.00;100580.63;1970304;28;20040;-74
2022/09/08 01:41:18;;;;;;;35.25;7.10;;;;;;;15.53;100.00;100573.81;1970504;28;20478;-73
2022/09/08 01:42:15;;;;;;;31.02;7.15;;;;;;;15.51;100.00;100566.03;1977384;28;20068;-73
2022/09/08 01:43:12;;;;;;;47.25;8.50;;;;;;;15.50;100.00;100547.72;1972077;28;20030;-73
2022/09/08 01:44:10;;;;;;;24.67;7.03;;;;;;;15.50;100.00;100548.53;1971331;28;20028;-72
2022/09/08 01:45:08;;;;;;;26.90;7.13;;;;;;;15.50;100.00;100552.97;1971294;28;20072;-72
2022/09/08 01:46:05;;;;;;;19.95;7.82;;;;;;;15.49;100.00;100556.53;1970410;28;20036;-73
2022/09/08 01:47:03;;;;;;;18.23;7.20;;;;;;;15.51;100.00;100559.91;1970372;28;20572;-74
2022/09/08 01:48:01;;;;;;;18.50;6.60;;;;;;;15.51;100.00;100566.03;1971048;28;20105;-74
2022/09/08 01:48:59;;;;;;;17.13;6.85;;;;;;;15.51;100.00;100571.28;1970997;28;20021;-75
2022/09/08 01:49:57;;;;;;;22.05;6.50;;;;;;;15.53;100.00;100568.53;1971027;28;20026;-75
2022/09/08 01:51:00;;;;;;;19.85;7.07;;;;;;;15.52;100.00;100566.84;1970882;28;20029;-74
2022/09/08 01:51:57;;;;;;;22.60;7.10;;;;;;;15.51;100.00;100565.16;1971029;28;20034;-75
2022/09/08 01:52:55;;;;;;;23.92;6.78;;;;;;;15.49;100.00;100559.16;1970776;28;20573;-75
2022/09/08 01:53:52;;;;;;;19.00;7.40;;;;;;;15.48;100.00;100557.47;1970845;28;20028;-75
2022/09/08 01:54:50;;;;;;;23.98;7.85;;;;;;;15.45;100.00;100556.75;1970936;28;20413;-75
2022/09/08 01:55:48;;;;;;;19.08;7.70;;;;;;;15.52;100.00;100556.31;1970972;28;20061;-74
2022/09/08 01:56:45;;;;;;;18.25;6.80;;;;;;;15.48;100.00;100549.59;1970913;28;20497;-74
2022/09/08 01:57:43;;;;;;;19.95;7.25;;;;;;;15.48;100.00;100546.97;1970972;28;20082;-75
2022/09/08 01:58:40;;;;;;;18.92;7.63;;;;;;;15.47;100.00;100543.50;1970883;28;20088;-75
2022/09/08 01:59:38;;;;;;;22.48;7.90;;;;;;;15.48;100.00;100544.34;1970726;28;20064;-75
2022/09/08 02:00:35;;;;;;;20.08;7.88;;;;;;;15.49;100.00;100538.13;1970962;28;20040;-75
2022/09/08 02:01:32;;;;;;;21.30;7.90;;;;;;;15.51;100.00;100538.88;1970868;28;20457;-74
2022/09/08 02:02:30;;;;;;;20.35;7.72;;;;;;;15.48;100.00;100539.06;1970651;28;20042;-75
2022/09/08 02:03:27;;;;;;;22.27;7.93;;;;;;;15.47;100.00;100538.25;1970945;28;20029;-75
2022/09/08 02:04:25;;;;;;;23.65;7.97;;;;;;;15.50;100.00;100537.19;1968654;28;20040;-75
2022/09/08 02:05:23;;;;;;;22.80;7.88;;;;;;;15.50;100.00;100539.81;1970811;28;20400;-74
2022/09/08 02:06:21;;;;;;;23.00;8.07;;;;;;;15.50;100.00;100535.38;1970237;28;20061;-75
2022/09/08 02:07:18;;;;;;;25.80;8.30;;;;;;;15.49;100.00;100527.59;1970290;28;20160;-75
2022/09/08 02:08:16;;;;;;;23.58;8.57;;;;;;;15.49;100.00;100524.97;1970692;28;20034;-75
2022/09/08 02:09:13;;;;;;;22.30;8.30;;;;;;;15.47;100.00;100521.63;1970841;28;20033;-75
2022/09/08 02:10:10;;;;;;;18.52;8.18;;;;;;;15.45;100.00;100519.94;1970171;28;20030;-74
2022/09/08 02:11:08;;;;;;;20.13;7.90;;;;;;;15.47;100.00;100527.72;1970305;28;20510;-75
2022/09/08 02:12:05;;;;;;;16.13;7.30;;;;;;;15.45;100.00;100525.19;1970676;28;20030;-74
2022/09/08 02:13:05;;;;;;;19.73;7.32;;;;;;;15.41;100.00;100529.00;1970915;28;20463;-75
2022/09/08 02:14:03;;;;;;;20.95;7.15;;;;;;;15.40;100.00;100527.28;1970843;28;20164;-75
2022/09/08 02:15:00;;;;;;;20.48;7.00;;;;;;;15.39;100.00;100522.97;1971018;28;20040;-75
2022/09/08 02:16:06;;;;;;;20.90;7.63;;;;;;;15.40;100.00;100524.66;1970711;28;20018;-75
2022/09/08 02:17:04;;;;;;;19.52;7.75;;;;;;;15.40;100.00;100522.03;1970900;28;20018;-75
2022/09/08 02:18:01;;;;;;;19.17;7.88;;;;;;;15.45;100.00;100522.56;1970125;28;20135;-75
2022/09/08 02:18:59;;;;;;;20.27;7.63;;;;;;;15.46;100.00;100520.75;1970247;28;20033;-74
2022/09/08 02:19:56;;;;;;;21.00;7.95;;;;;;;15.50;100.00;100516.16;1970694;28;20450;-75
2022/09/08 02:21:21;;;;;;;22.85;8.30;;;;;;;15.49;100.00;100519.72;1970149;28;20508;-75
2022/09/08 02:22:19;;;;;;;22.38;8.25;;;;;;;15.47;100.00;100521.63;1968608;28;20509;-75
2022/09/08 02:23:16;;;;;;;21.42;7.80;;;;;;;15.47;100.00;100511.09;1970598;28;20030;-75
2022/09/08 02:24:14;;;;;;;19.50;7.90;;;;;;;15.48;100.00;100512.78;1970630;28;20026;-75
2022/09/08 02:25:11;;;;;;;20.75;8.13;;;;;;;15.50;100.00;100516.97;1970739;28;20421;-75
2022/09/08 02:26:20;;;;;;;17.30;7.07;;;;;;;15.51;100.00;100512.56;1970704;28;20478;-75
2022/09/08 02:27:17;;;;;;;21.25;7.40;;;;;;;15.52;100.00;100514.25;1970738;28;20393;-76
2022/09/08 02:28:15;;;;;;;17.73;6.80;;;;;;;15.54;100.00;100517.63;1970695;28;20040;-76
2022/09/08 02:29:12;;;;;;;14.20;6.90;;;;;;;15.56;100.00;100527.09;1970719;28;20499;-75
2022/09/08 02:30:11;;;;;;;21.30;7.05;;;;;;;15.55;100.00;100522.78;1970727;28;20527;-75
2022/09/08 02:31:09;;;;;;;19.65;7.07;;;;;;;15.57;100.00;100523.50;1970671;28;20033;-74
2022/09/08 02:32:07;;;;;;;19.70;7.38;;;;;;;15.58;100.00;100519.09;1970753;28;20391;-75
2022/09/08 02:33:04;;;;;;;19.60;6.93;;;;;;;15.59;100.00;100518.13;1970665;28;20022;-75
2022/09/08 02:34:02;;;;;;;13.63;6.43;;;;;;;15.56;100.00;100508.69;1967684;28;20026;-75
2022/09/08 02:34:59;;;;;;;18.48;6.75;;;;;;;15.57;100.00;100507.72;1970130;28;20032;-75
2022/09/08 02:35:57;;;;;;;16.77;6.53;;;;;;;15.58;100.00;100508.56;1970503;28;20029;-75
2022/09/08 02:36:55;;;;;;;19.67;6.63;;;;;;;15.57;100.00;100512.16;1970647;28;20041;-75
2022/09/08 02:37:52;;;;;;;16.42;6.85;;;;;;;15.56;100.00;100520.97;1970524;28;20520;-75
2022/09/08 02:38:53;;;;;;;20.58;6.78;;;;;;;15.57;100.00;100520.06;1970648;28;20033;-75
2022/09/08 02:39:50;;;;;;;14.23;6.57;;;;;;;15.56;100.00;100520.97;1970739;28;20025;-75
2022/09/08 02:40:48;;;;;;;14.90;6.78;;;;;;;15.58;100.00;100525.19;1969790;28;20026;-75
2022/09/08 02:41:45;;;;;;;15.60;6.35;;;;;;;15.60;100.00;100525.06;1962259;28;20037;-75
2022/09/08 02:42:45;;;;;;;17.73;6.80;;;;;;;15.61;100.00;100529.41;1969168;28;20048;-76
2022/09/08 02:43:42;;;;;;;23.35;7.05;;;;;;;15.60;100.00;100530.34;1970624;28;20052;-76
2022/09/08 02:44:40;;;;;;;16.48;6.65;;;;;;;15.58;100.00;100527.00;1970647;28;20095;-75
2022/09/08 02:45:41;;;;;;;17.48;6.53;;;;;;;15.60;100.00;100517.19;1970548;28;20053;-75
2022/09/08 02:46:39;;;;;;;17.17;5.82;;;;;;;15.61;100.00;100523.28;1970567;28;20034;-75
2022/09/08 02:47:37;;;;;;;17.50;6.47;;;;;;;15.62;100.00;100523.19;1970599;28;20141;-75
2022/09/08 02:48:35;;;;;;;16.17;6.10;;;;;;;15.60;100.00;100525.06;1970533;28;20133;-75
2022/09/08 02:49:32;;;;;;;14.30;5.88;;;;;;;15.55;100.00;100521.94;1970597;28;20390;-76
2022/09/08 02:50:30;;;;;;;16.15;5.65;;;;;;;15.55;100.00;100524.56;1970583;28;20100;-75
2022/09/08 02:51:27;;;;;;;17.40;6.32;;;;;;;15.58;100.00;100519.09;1970395;28;20034;-74
2022/09/08 02:52:25;;;;;;;18.83;6.35;;;;;;;15.56;100.00;100513.94;1970579;28;20276;-75
2022/09/08 02:53:22;;;;;;;13.13;6.25;;;;;;;15.56;100.00;100521.84;1970333;28;20041;-74
2022/09/08 02:54:19;;;;;;;13.75;6.07;;;;;;;15.56;100.00;100515.72;1970644;28;20045;-76
2022/09/08 02:55:17;;;;;;;17.48;6.68;;;;;;;15.51;100.00;100517.84;1970596;28;20043;-76
2022/09/08 02:56:14;;;;;;;16.48;6.78;;;;;;;15.50;100.00;100521.41;1970469;28;20029;-75
2022/09/08 02:57:11;;;;;;;15.45;6.32;;;;;;;15.47;100.00;100517.22;1970597;28;20080;-75
2022/09/08 02:58:11;;;;;;;16.02;6.53;;;;;;;15.50;100.00;100500.38;1970465;28;20478;-75
2022/09/08 02:59:09;;;;;;;15.93;6.10;;;;;;;15.50;100.00;100513.53;1970572;28;20033;-75
2022/09/08 03:00:09;;;;;;;16.40;6.60;;;;;;;15.45;100.00;100509.44;1969392;28;20046;-75
2022/09/08 03:01:07;;;;;;;16.65;6.70;;;;;;;15.47;100.00;100504.06;1969981;28;20413;-75
2022/09/08 03:02:04;;;;;;;17.48;6.40;;;;;;;15.41;100.00;100502.69;1970201;28;20071;-73
2022/09/08 03:03:02;;;;;;;11.80;5.80;;;;;;;15.45;100.00;100503.31;1970396;28;20026;-74
2022/09/08 03:04:01;;;;;;;17.52;6.05;;;;;;;15.42;100.00;100503.53;1968566;28;20029;-74
2022/09/08 03:04:58;;;;;;;12.18;5.63;;;;;;;15.45;100.00;100508.56;1970633;28;20497;-75
2022/09/08 03:05:56;;;;;;;12.38;5.78;;;;;;;15.45;100.00;100513.84;1970331;28;20026;-75
2022/09/08 03:06:53;;;;;;;11.15;6.13;;;;;;;15.39;100.00;100517.72;1970499;28;20066;-75
2022/09/08 03:07:51;;;;;;;12.05;5.63;;;;;;;15.42;100.00;100528.03;1970323;28;20029;-75
2022/09/08 03:08:49;;;;;;;12.13;6.03;;;;;;;15.44;100.00;100528.75;1970495;28;20029;-76
2022/09/08 03:09:47;;;;;;;10.55;5.35;;;;;;;15.36;100.00;100531.06;1970497;28;20117;-75
2022/09/08 03:10:44;;;;;;;12.40;5.50;;;;;;;15.38;100.00;100529.19;1970383;28;20502;-74
2022/09/08 03:11:42;;;;;;;9.93;4.80;;;;;;;15.44;100.00;100520.03;1970461;28;20088;-76
2022/09/08 03:12:40;;;;;;;11.50;5.07;;;;;;;15.45;100.00;100524.34;1970218;28;20057;-74
2022/09/08 03:13:39;;;;;;;10.40;5.43;;;;;;;15.39;100.00;100528.25;1970320;28;20032;-76
2022/09/08 03:14:36;;;;;;;10.40;5.10;;;;;;;15.44;100.00;100528.75;1970447;28;20065;-75
2022/09/08 03:15:34;;;;;;;12.77;4.65;;;;;;;15.43;100.00;100527.09;1970360;28;20486;-72
2022/09/08 03:16:32;;;;;;;11.43;4.60;;;;;;;15.43;100.00;100527.09;1970354;28;20050;-75
2022/09/08 03:17:29;;;;;;;9.95;4.93;;;;;;;15.38;100.00;100523.94;1970423;28;20062;-75
2022/09/08 03:18:27;;;;;;;12.48;4.93;;;;;;;15.34;100.00;100527.72;1970404;28;20477;-76
2022/09/08 03:19:24;;;;;;;10.23;4.70;;;;;;;15.34;100.00;100525.09;1970333;28;20037;-75
2022/09/08 03:20:23;;;;;;;9.18;4.75;;;;;;;15.37;100.00;100522.25;1970325;28;20033;-76
2022/09/08 03:21:21;;;;;;;11.02;4.45;;;;;;;15.40;100.00;100518.56;1969757;28;20026;-75
2022/09/08 03:22:19;;;;;;;13.48;4.75;;;;;;;15.37;100.00;100517.00;1969791;28;20088;-75
2022/09/08 03:23:19;;;;;;;10.82;4.40;;;;;;;15.41;100.00;100521.09;1970111;28;20030;-75
2022/09/08 03:24:17;;;;;;;11.30;4.90;;;;;;;15.43;100.00;100516.56;1970337;28;20034;-76
2022/09/08 03:25:15;;;;;;;11.15;4.80;;;;;;;15.37;100.00;100517.00;1969680;28;20084;-75
2022/09/08 03:26:20;;;;;;;13.32;4.75;;;;;;;15.40;100.00;100515.94;1969789;28;20034;-75
2022/09/08 03:27:17;;;;;;;8.07;4.50;;;;;;;15.38;100.00;100516.03;1970272;28;20037;-75
2022/09/08 03:28:23;;;;;;;11.68;5.20;;;;;;;15.38;100.00;100513.41;1970312;28;20525;-77
2022/09/08 03:29:20;;;;;;;9.27;4.75;;;;;;;15.40;100.00;100522.03;1970194;28;20135;-75
2022/09/08 03:30:18;;;;;;;11.68;4.57;;;;;;;15.42;100.00;100524.56;1970393;28;20037;-76
2022/09/08 03:31:19;;;;;;;7.22;4.70;;;;;;;15.42;100.00;100520.16;1970182;28;20539;-75
2022/09/08 03:32:16;;;;;;;10.00;5.72;;;;;;;15.44;100.00;100533.19;1969646;28;20041;-74
2022/09/08 03:33:14;;;;;;;13.43;5.60;;;;;;;15.43;100.00;100532.34;1969675;28;20026;-74
2022/09/08 03:34:11;;;;;;;13.20;5.35;;;;;;;15.36;100.00;100530.25;1966373;28;20578;-75
2022/09/08 03:35:11;;;;;;;9.45;4.90;;;;;;;15.37;100.00;100532.78;1969577;28;20476;-75
2022/09/08 03:36:12;;;;;;;10.68;5.15;;;;;;;15.35;100.00;100544.31;1970226;28;20049;-73
2022/09/08 03:37:09;;;;;;;12.30;5.18;;;;;;;15.33;100.00;100547.06;1970046;28;20048;-70
2022/09/08 03:38:07;;;;;;;11.80;5.25;;;;;;;15.30;100.00;100550.72;1970355;28;20110;-71
2022/09/08 03:39:05;;;;;;;11.35;5.20;;;;;;;15.29;100.00;100559.56;1970134;28;20065;-72
2022/09/08 03:40:06;;;;;;;11.68;5.30;;;;;;;15.28;100.00;100557.03;1970262;28;20478;-73
2022/09/08 03:41:12;;;;;;;12.05;5.10;;;;;;;15.28;100.00;100554.41;1970239;28;20036;-71
2022/09/08 03:42:10;;;;;;;11.02;5.00;;;;;;;15.21;100.00;100553.13;1970276;28;20026;-73
2022/09/08 03:43:08;;;;;;;11.25;5.65;;;;;;;15.19;100.00;100546.19;1970174;28;20493;-72
2022/09/08 03:44:05;;;;;;;13.95;5.28;;;;;;;15.12;100.00;100533.59;1970189;28;20568;-72
2022/09/08 03:45:10;;;;;;;11.80;5.15;;;;;;;15.10;100.00;100525.78;1970239;28;20446;-70
2022/09/08 03:46:08;;;;;;;15.75;5.88;;;;;;;15.10;100.00;100524.94;1969428;28;20030;-75
2022/09/08 03:47:05;;;;;;;11.88;4.97;;;;;;;15.03;100.00;100521.88;1969706;28;20030;-74
2022/09/08 03:48:03;;;;;;;12.55;4.80;;;;;;;15.04;100.00;100526.19;1970073;28;20092;-73
2022/09/08 03:49:00;;;;;;;12.95;4.88;;;;;;;15.01;100.00;100513.25;1970288;28;20022;-71
2022/09/08 03:49:59;;;;;;;11.95;5.00;;;;;;;14.99;100.00;100510.72;1970039;28;20056;-73
2022/09/08 03:51:14;;;;;;;8.60;4.75;;;;;;;14.98;100.00;100511.69;1970021;28;20108;-74
2022/09/08 03:52:12;;;;;;;9.65;5.28;;;;;;;14.98;100.00;100505.59;1970181;28;20038;-73
2022/09/08 03:53:11;;;;;;;14.65;5.05;;;;;;;14.98;100.00;100505.59;1969486;28;20109;-73
2022/09/08 03:55:25;;;;;;;12.18;5.38;;;;;;;14.93;100.00;100509.38;1970188;28;20044;-72
2022/09/08 03:56:22;;;;;;;11.60;5.07;;;;;;;14.92;100.00;100510.28;1969986;28;20105;-71
2022/09/08 03:57:24;;;;;;;11.43;4.78;;;;;;;14.92;100.00;100502.41;1970011;28;20067;-74
2022/09/08 03:58:22;;;;;;;9.18;4.43;;;;;;;14.90;100.00;100508.72;1970002;28;20022;-70
2022/09/08 03:59:19;;;;;;;11.52;5.05;;;;;;;14.89;100.00;100507.88;1969849;28;20462;-73
2022/09/08 04:00:16;;;;;;;16.70;5.20;;;;;;;14.88;100.00;100506.19;1970075;28;20030;-74
2022/09/08 04:01:17;;;;;;;15.48;5.72;;;;;;;14.88;100.00;100500.94;1970029;28;20025;-73
2022/09/08 04:02:17;;;;;;;10.45;5.10;;;;;;;14.87;100.00;100501.88;1969869;28;20068;-72
2022/09/08 04:03:15;;;;;;;10.10;4.95;;;;;;;14.85;100.00;100501.13;1970032;28;20101;-71
2022/09/08 04:04:12;;;;;;;9.75;5.00;;;;;;;14.85;100.00;100501.13;1966880;28;20867;-72
2022/09/08 04:05:10;;;;;;;12.57;5.38;;;;;;;14.86;100.00;100502.00;1969467;28;20025;-74
2022/09/08 04:06:09;;;;;;;13.23;5.30;;;;;;;14.84;100.00;100496.84;1970056;28;20049;-68
2022/09/08 04:07:07;;;;;;;11.25;5.75;;;;;;;14.83;100.00;100492.53;1969323;28;20030;-72
2022/09/08 04:08:05;;;;;;;11.90;5.25;;;;;;;14.82;100.00;100495.25;1969469;28;20026;-73
2022/09/08 04:09:02;;;;;;;10.77;5.40;;;;;;;14.82;100.00;100501.38;1969911;28;20021;-73
2022/09/08 04:10:01;;;;;;;13.68;5.43;;;;;;;14.81;100.00;100497.03;1970024;28;20091;-71
2022/09/08 04:10:59;;;;;;;17.55;5.75;;;;;;;14.80;100.00;100504.09;1969285;28;20026;-71
2022/09/08 04:11:57;;;;;;;14.73;5.55;;;;;;;14.82;100.00;100505.75;1969473;28;20026;-74
2022/09/08 04:12:54;;;;;;;12.80;5.10;;;;;;;14.79;100.00;100504.19;1969822;28;20023;-73
2022/09/08 04:13:52;;;;;;;12.18;5.45;;;;;;;14.80;100.00;100497.97;1969323;28;20076;-74
2022/09/08 04:14:50;;;;;;;9.95;5.03;;;;;;;14.79;100.00;100512.06;1969288;28;20568;-74
2022/09/08 04:15:48;;;;;;;10.05;4.80;;;;;;;14.77;100.00;100508.69;1969938;28;20026;-74
2022/09/08 04:16:46;;;;;;;11.73;5.15;;;;;;;14.79;100.00;100517.31;1969830;28;20120;-74
2022/09/08 04:17:43;;;;;;;10.43;4.95;;;;;;;14.80;100.00;100508.47;1969378;28;20047;-75
2022/09/08 04:18:41;;;;;;;13.27;5.47;;;;;;;14.79;100.00;100509.44;1969322;28;20028;-72
2022/09/08 04:19:38;;;;;;;13.93;5.35;;;;;;;14.80;100.00;100519.00;1969867;28;20044;-74
2022/09/08 04:20:38;;;;;;;15.20;5.40;;;;;;;14.81;100.00;100510.16;1970034;28;20397;-74
2022/09/08 04:21:35;;;;;;;18.75;5.90;;;;;;;14.83;100.00;100512.69;1969212;28;20488;-75
2022/09/08 04:22:33;;;;;;;11.88;5.25;;;;;;;14.84;100.00;100514.38;1969350;28;20042;-72
2022/09/08 04:23:32;;;;;;;12.25;5.22;;;;;;;14.85;100.00;100516.06;1969745;28;20038;-74
2022/09/08 04:24:29;;;;;;;13.93;5.63;;;;;;;14.84;100.00;100519.63;1969783;28;20042;-70
2022/09/08 04:25:27;;;;;;;19.33;5.88;;;;;;;14.85;100.00;100519.53;1969791;28;20402;-75
2022/09/08 04:26:24;;;;;;;9.50;5.45;;;;;;;14.85;100.00;100516.91;1969740;28;20037;-71
2022/09/08 04:27:22;;;;;;;14.68;5.75;;;;;;;14.86;100.00;100518.59;1969862;28;20021;-75
2022/09/08 04:28:20;;;;;;;12.15;5.82;;;;;;;14.86;100.00;100521.22;1969849;28;20026;-73
2022/09/08 04:29:17;;;;;;;18.15;6.10;;;;;;;14.85;100.00;100519.53;1969746;28;20385;-76
2022/09/08 04:30:15;;;;;;;13.02;5.97;;;;;;;14.86;100.00;100517.75;1969907;28;20049;-74
2022/09/08 04:31:15;;;;;;;16.08;5.80;;;;;;;14.85;100.00;100522.16;1969841;28;20418;-75
2022/09/08 04:32:13;;;;;;;12.20;5.97;;;;;;;14.87;100.00;100522.91;1969863;28;20030;-75
2022/09/08 04:33:11;;;;;;;16.77;6.22;;;;;;;14.88;100.00;100524.56;1969250;28;20054;-76
2022/09/08 04:34:10;;;;;;;12.98;5.93;;;;;;;14.88;100.00;100527.22;1967020;28;20105;-76
2022/09/08 04:35:08;;;;;;;14.85;6.10;;;;;;;14.89;100.00;100523.63;1969860;28;20440;-75
2022/09/08 04:36:16;;;;;;;14.80;6.28;;;;;;;14.88;100.00;100532.47;1969852;28;20508;-76
2022/09/08 04:37:13;;;;;;;15.10;5.78;;;;;;;14.85;100.00;100532.66;1969796;28;20055;-74
2022/09/08 04:38:11;;;;;;;17.17;6.25;;;;;;;14.86;100.00;100538.75;1969734;28;20033;-76